sensor_id;sensor_type;location;lat;lon;timestamp;temperature;humidity
22629;DHT22;11481;53.694;9.910;2023-03-01T00:01:14;3.50;99.90
22629;DHT22;11481;53.694;9.910;2023-03-01T00:03:42;3.50;99.90
22629;DHT22;11481;53.694;9.910;2023-03-01T00:06:09;3.60;99.90
22629;DHT22;11481;53.694;9.910;2023-03-01T00:08:37;3.60;99.90
22629;DHT22;11481;53.694;9.910;2023-03-01T00:11:15;3.70;99.90
22629;DHT22;11481;53.694;9.910;2023-03-01T00:13:44;3.70;99.90
22629;DHT22;11481;53.694;9.910;2023-03-01T00:16:14;3.80;99.90
22629;DHT22;11481;53.694;9.910;2023-03-01T00:18:41;3.80;99.90
22629;DHT22;11481;53.694;9.910;2023-03-01T00:21:07;3.70;99.90
22629;DHT22;11481;53.694;9.910;2023-03-01T00:23:35;3.70;99.90
22629;DHT22;11481;53.694;9.910;2023-03-01T00:26:05;3.70;99.90
22629;DHT22;11481;53.694;9.910;2023-03-01T00:28:32;3.70;99.90
22629;DHT22;11481;53.694;9.910;2023-03-01T00:31:13;3.70;99.90
22629;DHT22;11481;53.694;9.910;2023-03-01T00:33:40;3.50;99.90
22629;DHT22;11481;53.694;9.910;2023-03-01T00:36:08;3.50;99.90
22629;DHT22;11481;53.694;9.910;2023-03-01T00:38:37;3.30;99.90
22629;DHT22;11481;53.694;9.910;2023-03-01T00:41:15;3.30;99.90
22629;DHT22;11481;53.694;9.910;2023-03-01T00:43:43;3.20;99.90
22629;DHT22;11481;53.694;9.910;2023-03-01T00:46:15;3.10;99.90
22629;DHT22;11481;53.694;9.910;2023-03-01T00:48:42;3.00;99.90
22629;DHT22;11481;53.694;9.910;2023-03-01T00:51:24;3.10;99.90
22629;DHT22;11481;53.694;9.910;2023-03-01T00:53:53;3.00;99.90
22629;DHT22;11481;53.694;9.910;2023-03-01T00:56:20;3.00;99.90
22629;DHT22;11481;53.694;9.910;2023-03-01T00:58:47;3.10;99.90
22629;DHT22;11481;53.694;9.910;2023-03-01T01:01:17;3.10;99.90
22629;DHT22;11481;53.694;9.910;2023-03-01T01:03:50;3.20;99.90
22629;DHT22;11481;53.694;9.910;2023-03-01T01:06:23;3.20;99.90
22629;DHT22;11481;53.694;9.910;2023-03-01T01:08:51;3.20;99.90
22629;DHT22;11481;53.694;9.910;2023-03-01T01:11:19;3.20;99.90
22629;DHT22;11481;53.694;9.910;2023-03-01T01:13:47;3.20;99.90
22629;DHT22;11481;53.694;9.910;2023-03-01T01:16:14;3.10;99.90
22629;DHT22;11481;53.694;9.910;2023-03-01T01:18:42;3.10;99.90
22629;DHT22;11481;53.694;9.910;2023-03-01T01:21:11;3.10;99.90
22629;DHT22;11481;53.694;9.910;2023-03-01T01:23:39;3.10;99.90
22629;DHT22;11481;53.694;9.910;2023-03-01T01:28:42;3.20;99.90
22629;DHT22;11481;53.694;9.910;2023-03-01T01:31:08;3.00;99.90
22629;DHT22;11481;53.694;9.910;2023-03-01T01:33:35;3.00;99.90
22629;DHT22;11481;53.694;9.910;2023-03-01T01:36:05;2.90;99.90
22629;DHT22;11481;53.694;9.910;2023-03-01T01:38:32;2.90;99.90
22629;DHT22;11481;53.694;9.910;2023-03-01T01:40:59;2.80;99.90
22629;DHT22;11481;53.694;9.910;2023-03-01T01:43:33;2.90;99.90
22629;DHT22;11481;53.694;9.910;2023-03-01T01:46:05;2.80;99.90
22629;DHT22;11481;53.694;9.910;2023-03-01T01:48:45;2.80;99.90
22629;DHT22;11481;53.694;9.910;2023-03-01T01:51:20;2.70;99.90
22629;DHT22;11481;53.694;9.910;2023-03-01T01:53:56;2.60;99.90
22629;DHT22;11481;53.694;9.910;2023-03-01T01:56:26;2.60;99.90
22629;DHT22;11481;53.694;9.910;2023-03-01T01:58:53;2.60;99.90
22629;DHT22;11481;53.694;9.910;2023-03-01T02:01:21;2.60;99.90
22629;DHT22;11481;53.694;9.910;2023-03-01T02:03:48;2.50;99.90
22629;DHT22;11481;53.694;9.910;2023-03-01T02:06:17;2.50;99.90
22629;DHT22;11481;53.694;9.910;2023-03-01T02:08:46;2.50;99.90
22629;DHT22;11481;53.694;9.910;2023-03-01T02:11:14;2.50;99.90
22629;DHT22;11481;53.694;9.910;2023-03-01T02:13:41;2.60;99.90
22629;DHT22;11481;53.694;9.910;2023-03-01T02:16:10;2.50;99.90
22629;DHT22;11481;53.694;9.910;2023-03-01T02:18:38;2.50;99.90
22629;DHT22;11481;53.694;9.910;2023-03-01T02:21:28;2.60;99.90
22629;DHT22;11481;53.694;9.910;2023-03-01T02:24:00;2.50;99.90
22629;DHT22;11481;53.694;9.910;2023-03-01T02:26:44;2.50;99.90
22629;DHT22;11481;53.694;9.910;2023-03-01T02:29:11;2.40;99.90
22629;DHT22;11481;53.694;9.910;2023-03-01T02:31:38;2.40;99.90
22629;DHT22;11481;53.694;9.910;2023-03-01T02:34:16;2.40;99.90
22629;DHT22;11481;53.694;9.910;2023-03-01T02:36:46;2.40;99.90
22629;DHT22;11481;53.694;9.910;2023-03-01T02:39:21;2.30;99.90
22629;DHT22;11481;53.694;9.910;2023-03-01T02:41:52;2.30;99.90
22629;DHT22;11481;53.694;9.910;2023-03-01T02:44:22;2.20;99.90
22629;DHT22;11481;53.694;9.910;2023-03-01T02:46:51;2.20;99.90
22629;DHT22;11481;53.694;9.910;2023-03-01T02:49:27;2.10;99.90
22629;DHT22;11481;53.694;9.910;2023-03-01T02:57:31;2.10;99.90
22629;DHT22;11481;53.694;9.910;2023-03-01T03:00:03;2.00;99.90
22629;DHT22;11481;53.694;9.910;2023-03-01T03:02:35;2.00;99.90
22629;DHT22;11481;53.694;9.910;2023-03-01T03:05:11;1.90;99.90
22629;DHT22;11481;53.694;9.910;2023-03-01T03:07:41;1.90;99.90
22629;DHT22;11481;53.694;9.910;2023-03-01T03:10:11;1.90;99.90
22629;DHT22;11481;53.694;9.910;2023-03-01T03:12:38;1.90;99.90
22629;DHT22;11481;53.694;9.910;2023-03-01T03:15:07;1.90;99.90
22629;DHT22;11481;53.694;9.910;2023-03-01T03:17:36;1.90;99.90
22629;DHT22;11481;53.694;9.910;2023-03-01T03:20:05;1.90;99.90
22629;DHT22;11481;53.694;9.910;2023-03-01T03:22:32;1.90;99.90
22629;DHT22;11481;53.694;9.910;2023-03-01T03:25:00;1.90;99.90
22629;DHT22;11481;53.694;9.910;2023-03-01T03:27:28;1.90;99.90
22629;DHT22;11481;53.694;9.910;2023-03-01T03:29:55;2.00;99.90
22629;DHT22;11481;53.694;9.910;2023-03-01T03:32:22;2.00;99.90
22629;DHT22;11481;53.694;9.910;2023-03-01T03:34:48;1.90;99.90
22629;DHT22;11481;53.694;9.910;2023-03-01T03:37:15;1.80;99.90
22629;DHT22;11481;53.694;9.910;2023-03-01T03:40:00;1.70;99.90
22629;DHT22;11481;53.694;9.910;2023-03-01T03:42:27;1.80;99.90
22629;DHT22;11481;53.694;9.910;2023-03-01T03:44:54;1.80;99.90
22629;DHT22;11481;53.694;9.910;2023-03-01T03:47:21;1.70;99.90
22629;DHT22;11481;53.694;9.910;2023-03-01T03:49:47;1.80;99.90
22629;DHT22;11481;53.694;9.910;2023-03-01T03:52:14;1.90;99.90
22629;DHT22;11481;53.694;9.910;2023-03-01T03:54:40;1.90;99.90
22629;DHT22;11481;53.694;9.910;2023-03-01T03:57:07;1.90;99.90
22629;DHT22;11481;53.694;9.910;2023-03-01T03:59:34;1.90;99.90
22629;DHT22;11481;53.694;9.910;2023-03-01T04:02:00;1.90;99.90
22629;DHT22;11481;53.694;9.910;2023-03-01T04:04:27;1.80;99.90
22629;DHT22;11481;53.694;9.910;2023-03-01T04:06:53;1.90;99.90
22629;DHT22;11481;53.694;9.910;2023-03-01T04:09:20;1.90;99.90
22629;DHT22;11481;53.694;9.910;2023-03-01T04:11:47;1.90;99.90
22629;DHT22;11481;53.694;9.910;2023-03-01T04:14:14;1.90;99.90
22629;DHT22;11481;53.694;9.910;2023-03-01T04:16:40;1.90;99.90
22629;DHT22;11481;53.694;9.910;2023-03-01T04:19:07;1.90;99.90
22629;DHT22;11481;53.694;9.910;2023-03-01T04:21:35;2.00;99.90
22629;DHT22;11481;53.694;9.910;2023-03-01T04:24:03;1.90;99.90
22629;DHT22;11481;53.694;9.910;2023-03-01T04:26:30;1.90;99.90
22629;DHT22;11481;53.694;9.910;2023-03-01T04:28:57;1.90;99.90
22629;DHT22;11481;53.694;9.910;2023-03-01T04:31:23;1.90;99.90
22629;DHT22;11481;53.694;9.910;2023-03-01T04:33:55;1.90;99.90
22629;DHT22;11481;53.694;9.910;2023-03-01T04:36:25;1.90;99.90
22629;DHT22;11481;53.694;9.910;2023-03-01T04:38:52;1.90;99.90
22629;DHT22;11481;53.694;9.910;2023-03-01T04:41:20;2.00;99.90
22629;DHT22;11481;53.694;9.910;2023-03-01T04:43:47;1.90;99.90
22629;DHT22;11481;53.694;9.910;2023-03-01T04:46:18;2.00;99.90
22629;DHT22;11481;53.694;9.910;2023-03-01T04:48:45;2.00;99.90
22629;DHT22;11481;53.694;9.910;2023-03-01T04:51:13;2.00;99.90
22629;DHT22;11481;53.694;9.910;2023-03-01T04:53:41;2.00;99.90
22629;DHT22;11481;53.694;9.910;2023-03-01T04:56:08;2.00;99.90
22629;DHT22;11481;53.694;9.910;2023-03-01T04:58:35;2.00;99.90
22629;DHT22;11481;53.694;9.910;2023-03-01T05:01:08;2.00;99.90
22629;DHT22;11481;53.694;9.910;2023-03-01T05:03:45;2.10;99.90
22629;DHT22;11481;53.694;9.910;2023-03-01T05:06:13;2.10;99.90
22629;DHT22;11481;53.694;9.910;2023-03-01T05:08:41;2.00;99.90
22629;DHT22;11481;53.694;9.910;2023-03-01T05:11:09;2.00;99.90
22629;DHT22;11481;53.694;9.910;2023-03-01T05:13:37;2.00;99.90
22629;DHT22;11481;53.694;9.910;2023-03-01T05:16:06;1.90;99.90
22629;DHT22;11481;53.694;9.910;2023-03-01T05:18:33;2.00;99.90
22629;DHT22;11481;53.694;9.910;2023-03-01T05:21:12;2.00;99.90
22629;DHT22;11481;53.694;9.910;2023-03-01T05:23:39;2.10;99.90
22629;DHT22;11481;53.694;9.910;2023-03-01T05:26:07;2.10;99.90
22629;DHT22;11481;53.694;9.910;2023-03-01T05:28:47;2.10;99.90
22629;DHT22;11481;53.694;9.910;2023-03-01T05:31:14;2.20;99.90
22629;DHT22;11481;53.694;9.910;2023-03-01T05:33:44;2.20;99.90
22629;DHT22;11481;53.694;9.910;2023-03-01T05:36:11;2.20;99.90
22629;DHT22;11481;53.694;9.910;2023-03-01T05:38:38;2.20;99.90
22629;DHT22;11481;53.694;9.910;2023-03-01T05:41:05;2.20;99.90
22629;DHT22;11481;53.694;9.910;2023-03-01T05:43:32;2.10;99.90
22629;DHT22;11481;53.694;9.910;2023-03-01T05:46:02;2.10;99.90
22629;DHT22;11481;53.694;9.910;2023-03-01T05:48:28;2.10;99.90
22629;DHT22;11481;53.694;9.910;2023-03-01T05:50:57;2.20;99.90
22629;DHT22;11481;53.694;9.910;2023-03-01T05:53:27;2.20;99.90
22629;DHT22;11481;53.694;9.910;2023-03-01T05:55:54;2.10;99.90
22629;DHT22;11481;53.694;9.910;2023-03-01T05:58:20;2.00;99.90
22629;DHT22;11481;53.694;9.910;2023-03-01T06:00:49;1.90;99.90
22629;DHT22;11481;53.694;9.910;2023-03-01T06:03:19;1.90;99.90
22629;DHT22;11481;53.694;9.910;2023-03-01T06:05:46;1.90;99.90
22629;DHT22;11481;53.694;9.910;2023-03-01T06:08:13;1.90;99.90
22629;DHT22;11481;53.694;9.910;2023-03-01T06:10:40;1.90;99.90
22629;DHT22;11481;53.694;9.910;2023-03-01T06:13:07;2.00;99.90
22629;DHT22;11481;53.694;9.910;2023-03-01T06:15:34;2.00;99.90
22629;DHT22;11481;53.694;9.910;2023-03-01T06:18:01;2.00;99.90
22629;DHT22;11481;53.694;9.910;2023-03-01T06:20:28;1.90;99.90
22629;DHT22;11481;53.694;9.910;2023-03-01T06:22:55;1.90;99.90
22629;DHT22;11481;53.694;9.910;2023-03-01T06:25:24;1.90;99.90
22629;DHT22;11481;53.694;9.910;2023-03-01T06:27:51;1.90;99.90
22629;DHT22;11481;53.694;9.910;2023-03-01T06:30:22;1.90;99.90
22629;DHT22;11481;53.694;9.910;2023-03-01T06:32:51;1.90;99.90
22629;DHT22;11481;53.694;9.910;2023-03-01T06:35:18;1.90;99.90
22629;DHT22;11481;53.694;9.910;2023-03-01T06:37:46;2.10;99.90
22629;DHT22;11481;53.694;9.910;2023-03-01T06:40:14;2.10;99.90
22629;DHT22;11481;53.694;9.910;2023-03-01T06:42:43;2.10;99.90
22629;DHT22;11481;53.694;9.910;2023-03-01T06:45:11;2.10;99.90
22629;DHT22;11481;53.694;9.910;2023-03-01T06:47:39;2.00;99.90
22629;DHT22;11481;53.694;9.910;2023-03-01T06:50:07;2.10;99.90
22629;DHT22;11481;53.694;9.910;2023-03-01T06:52:34;2.10;99.90
22629;DHT22;11481;53.694;9.910;2023-03-01T06:55:00;2.10;99.90
22629;DHT22;11481;53.694;9.910;2023-03-01T06:57:27;2.20;99.90
22629;DHT22;11481;53.694;9.910;2023-03-01T06:59:55;2.20;99.90
22629;DHT22;11481;53.694;9.910;2023-03-01T07:02:22;2.20;99.90
22629;DHT22;11481;53.694;9.910;2023-03-01T07:04:50;2.30;99.90
22629;DHT22;11481;53.694;9.910;2023-03-01T07:07:18;2.30;99.90
22629;DHT22;11481;53.694;9.910;2023-03-01T07:09:46;2.40;99.90
22629;DHT22;11481;53.694;9.910;2023-03-01T07:12:13;2.30;99.90
22629;DHT22;11481;53.694;9.910;2023-03-01T07:14:40;2.30;99.90
22629;DHT22;11481;53.694;9.910;2023-03-01T07:17:09;2.30;99.90
22629;DHT22;11481;53.694;9.910;2023-03-01T07:19:39;2.30;99.90
22629;DHT22;11481;53.694;9.910;2023-03-01T07:22:05;2.30;99.90
22629;DHT22;11481;53.694;9.910;2023-03-01T07:24:34;2.30;99.90
22629;DHT22;11481;53.694;9.910;2023-03-01T07:27:01;2.40;99.90
22629;DHT22;11481;53.694;9.910;2023-03-01T07:29:28;2.30;99.90
22629;DHT22;11481;53.694;9.910;2023-03-01T07:31:55;2.30;99.90
22629;DHT22;11481;53.694;9.910;2023-03-01T07:34:22;2.30;99.90
22629;DHT22;11481;53.694;9.910;2023-03-01T07:36:48;2.20;99.90
22629;DHT22;11481;53.694;9.910;2023-03-01T07:39:15;2.30;99.90
22629;DHT22;11481;53.694;9.910;2023-03-01T07:41:45;2.30;99.90
22629;DHT22;11481;53.694;9.910;2023-03-01T07:44:11;2.20;99.90
22629;DHT22;11481;53.694;9.910;2023-03-01T07:46:39;2.20;99.90
22629;DHT22;11481;53.694;9.910;2023-03-01T07:49:06;2.20;99.90
22629;DHT22;11481;53.694;9.910;2023-03-01T07:51:33;2.10;99.90
22629;DHT22;11481;53.694;9.910;2023-03-01T07:54:00;2.20;99.90
22629;DHT22;11481;53.694;9.910;2023-03-01T07:56:28;2.20;99.90
22629;DHT22;11481;53.694;9.910;2023-03-01T07:58:55;2.30;99.90
22629;DHT22;11481;53.694;9.910;2023-03-01T08:01:24;2.30;99.90
22629;DHT22;11481;53.694;9.910;2023-03-01T08:03:51;2.30;99.90
22629;DHT22;11481;53.694;9.910;2023-03-01T08:06:18;2.10;99.90
22629;DHT22;11481;53.694;9.910;2023-03-01T08:08:45;2.00;99.90
22629;DHT22;11481;53.694;9.910;2023-03-01T08:11:14;2.10;99.90
22629;DHT22;11481;53.694;9.910;2023-03-01T08:13:42;1.80;99.90
22629;DHT22;11481;53.694;9.910;2023-03-01T08:16:14;1.70;99.90
22629;DHT22;11481;53.694;9.910;2023-03-01T08:18:42;1.60;99.90
22629;DHT22;11481;53.694;9.910;2023-03-01T08:21:12;1.60;99.90
22629;DHT22;11481;53.694;9.910;2023-03-01T08:23:40;1.80;99.90
22629;DHT22;11481;53.694;9.910;2023-03-01T08:26:14;1.90;99.90
22629;DHT22;11481;53.694;9.910;2023-03-01T08:28:42;2.00;99.90
22629;DHT22;11481;53.694;9.910;2023-03-01T08:31:16;2.10;99.90
22629;DHT22;11481;53.694;9.910;2023-03-01T08:33:44;2.00;99.90
22629;DHT22;11481;53.694;9.910;2023-03-01T08:36:13;2.00;99.90
22629;DHT22;11481;53.694;9.910;2023-03-01T08:38:42;2.00;99.90
22629;DHT22;11481;53.694;9.910;2023-03-01T08:41:08;2.20;99.90
22629;DHT22;11481;53.694;9.910;2023-03-01T08:43:37;2.30;99.90
22629;DHT22;11481;53.694;9.910;2023-03-01T08:46:04;2.40;99.90
22629;DHT22;11481;53.694;9.910;2023-03-01T08:48:30;2.40;99.90
22629;DHT22;11481;53.694;9.910;2023-03-01T08:51:10;2.50;99.90
22629;DHT22;11481;53.694;9.910;2023-03-01T08:53:37;2.50;99.90
22629;DHT22;11481;53.694;9.910;2023-03-01T08:56:04;2.40;99.90
22629;DHT22;11481;53.694;9.910;2023-03-01T08:58:31;2.50;99.90
22629;DHT22;11481;53.694;9.910;2023-03-01T09:01:00;2.50;99.90
22629;DHT22;11481;53.694;9.910;2023-03-01T09:03:27;2.60;99.90
22629;DHT22;11481;53.694;9.910;2023-03-01T09:06:00;2.70;99.90
22629;DHT22;11481;53.694;9.910;2023-03-01T09:08:26;2.90;99.90
22629;DHT22;11481;53.694;9.910;2023-03-01T09:10:56;2.90;99.90
22629;DHT22;11481;53.694;9.910;2023-03-01T09:13:28;3.00;99.90
22629;DHT22;11481;53.694;9.910;2023-03-01T09:15:59;3.00;99.90
22629;DHT22;11481;53.694;9.910;2023-03-01T09:18:27;3.10;99.90
22629;DHT22;11481;53.694;9.910;2023-03-01T09:21:07;3.10;99.90
22629;DHT22;11481;53.694;9.910;2023-03-01T09:23:42;3.10;99.90
22629;DHT22;11481;53.694;9.910;2023-03-01T09:26:11;3.00;99.90
22629;DHT22;11481;53.694;9.910;2023-03-01T09:28:39;2.90;99.90
22629;DHT22;11481;53.694;9.910;2023-03-01T09:31:07;2.90;99.90
22629;DHT22;11481;53.694;9.910;2023-03-01T09:33:34;3.10;99.90
22629;DHT22;11481;53.694;9.910;2023-03-01T09:36:03;2.90;99.90
22629;DHT22;11481;53.694;9.910;2023-03-01T09:38:31;2.80;99.90
22629;DHT22;11481;53.694;9.910;2023-03-01T09:41:00;2.60;99.90
22629;DHT22;11481;53.694;9.910;2023-03-01T09:43:49;2.50;99.90
22629;DHT22;11481;53.694;9.910;2023-03-01T09:46:23;2.40;99.90
22629;DHT22;11481;53.694;9.910;2023-03-01T09:48:59;2.50;99.90
22629;DHT22;11481;53.694;9.910;2023-03-01T09:51:34;2.70;99.90
22629;DHT22;11481;53.694;9.910;2023-03-01T09:54:04;2.80;99.90
22629;DHT22;11481;53.694;9.910;2023-03-01T09:56:52;3.00;99.90
22629;DHT22;11481;53.694;9.910;2023-03-01T09:59:43;3.00;99.90
22629;DHT22;11481;53.694;9.910;2023-03-01T10:02:25;3.20;99.90
22629;DHT22;11481;53.694;9.910;2023-03-01T10:05:25;3.30;99.90
22629;DHT22;11481;53.694;9.910;2023-03-01T10:08:12;3.40;99.90
22629;DHT22;11481;53.694;9.910;2023-03-01T10:10:44;3.30;99.90
22629;DHT22;11481;53.694;9.910;2023-03-01T10:13:29;3.20;99.90
22629;DHT22;11481;53.694;9.910;2023-03-01T10:16:05;3.20;99.90
22629;DHT22;11481;53.694;9.910;2023-03-01T10:18:37;3.20;99.90
22629;DHT22;11481;53.694;9.910;2023-03-01T10:21:16;3.30;99.90
22629;DHT22;11481;53.694;9.910;2023-03-01T10:23:44;3.30;99.90
22629;DHT22;11481;53.694;9.910;2023-03-01T10:26:38;3.30;99.90
22629;DHT22;11481;53.694;9.910;2023-03-01T10:29:10;3.30;99.90
22629;DHT22;11481;53.694;9.910;2023-03-01T10:31:48;3.40;99.90
22629;DHT22;11481;53.694;9.910;2023-03-01T10:34:33;3.20;99.90
22629;DHT22;11481;53.694;9.910;2023-03-01T10:40:12;3.30;99.90
22629;DHT22;11481;53.694;9.910;2023-03-01T10:42:46;3.20;99.90
22629;DHT22;11481;53.694;9.910;2023-03-01T10:45:37;3.10;99.90
22629;DHT22;11481;53.694;9.910;2023-03-01T10:48:25;3.10;99.90
22629;DHT22;11481;53.694;9.910;2023-03-01T10:53:35;3.30;99.90
22629;DHT22;11481;53.694;9.910;2023-03-01T10:58:30;3.50;99.90
22629;DHT22;11481;53.694;9.910;2023-03-01T11:03:44;3.60;99.90
22629;DHT22;11481;53.694;9.910;2023-03-01T11:19:01;4.00;99.90
22629;DHT22;11481;53.694;9.910;2023-03-01T11:21:33;4.10;99.90
22629;DHT22;11481;53.694;9.910;2023-03-01T11:24:04;4.00;99.90
22629;DHT22;11481;53.694;9.910;2023-03-01T11:26:37;3.90;99.90
22629;DHT22;11481;53.694;9.910;2023-03-01T11:29:11;3.70;99.90
22629;DHT22;11481;53.694;9.910;2023-03-01T11:31:40;3.70;99.90
22629;DHT22;11481;53.694;9.910;2023-03-01T11:34:42;3.80;99.90
22629;DHT22;11481;53.694;9.910;2023-03-01T11:37:21;4.00;99.90
22629;DHT22;11481;53.694;9.910;2023-03-01T11:43:04;4.00;99.90
22629;DHT22;11481;53.694;9.910;2023-03-01T11:45:52;4.20;99.90
22629;DHT22;11481;53.694;9.910;2023-03-01T11:54:17;4.60;99.90
22629;DHT22;11481;53.694;9.910;2023-03-01T11:56:57;4.60;99.90
22629;DHT22;11481;53.694;9.910;2023-03-01T11:59:45;4.50;99.90
22629;DHT22;11481;53.694;9.910;2023-03-01T12:02:55;4.40;99.90
22629;DHT22;11481;53.694;9.910;2023-03-01T12:05:54;4.60;99.90
22629;DHT22;11481;53.694;9.910;2023-03-01T12:08:43;4.30;99.90
22629;DHT22;11481;53.694;9.910;2023-03-01T12:11:37;4.40;99.90
22629;DHT22;11481;53.694;9.910;2023-03-01T12:17:04;4.70;99.90
22629;DHT22;11481;53.694;9.910;2023-03-01T12:22:35;5.10;99.90
22629;DHT22;11481;53.694;9.910;2023-03-01T12:25:30;5.00;99.90
22629;DHT22;11481;53.694;9.910;2023-03-01T12:28:08;5.10;99.90
22629;DHT22;11481;53.694;9.910;2023-03-01T12:30:51;5.00;99.90
22629;DHT22;11481;53.694;9.910;2023-03-01T12:33:29;5.00;99.90
22629;DHT22;11481;53.694;9.910;2023-03-01T12:38:48;5.20;99.90
22629;DHT22;11481;53.694;9.910;2023-03-01T12:44:01;5.50;99.90
22629;DHT22;11481;53.694;9.910;2023-03-01T12:47:04;5.50;99.90
22629;DHT22;11481;53.694;9.910;2023-03-01T12:49:36;5.20;99.90
22629;DHT22;11481;53.694;9.910;2023-03-01T12:52:35;5.20;99.90
22629;DHT22;11481;53.694;9.910;2023-03-01T12:55:16;5.30;99.90
22629;DHT22;11481;53.694;9.910;2023-03-01T13:00:43;5.60;99.90
22629;DHT22;11481;53.694;9.910;2023-03-01T13:03:26;5.60;99.90
22629;DHT22;11481;53.694;9.910;2023-03-01T13:06:11;5.80;99.90
22629;DHT22;11481;53.694;9.910;2023-03-01T13:08:49;5.80;99.90
22629;DHT22;11481;53.694;9.910;2023-03-01T13:11:22;5.90;99.90
22629;DHT22;11481;53.694;9.910;2023-03-01T13:13:50;5.80;99.90
22629;DHT22;11481;53.694;9.910;2023-03-01T13:16:22;5.80;99.90
22629;DHT22;11481;53.694;9.910;2023-03-01T13:19:14;5.90;99.90
22629;DHT22;11481;53.694;9.910;2023-03-01T13:21:43;6.00;99.90
22629;DHT22;11481;53.694;9.910;2023-03-01T13:24:42;6.20;99.90
22629;DHT22;11481;53.694;9.910;2023-03-01T13:27:11;6.20;99.90
22629;DHT22;11481;53.694;9.910;2023-03-01T13:32:28;6.30;99.90
22629;DHT22;11481;53.694;9.910;2023-03-01T13:37:44;6.50;99.90
22629;DHT22;11481;53.694;9.910;2023-03-01T13:42:46;6.60;99.90
22629;DHT22;11481;53.694;9.910;2023-03-01T13:48:26;7.10;99.90
22629;DHT22;11481;53.694;9.910;2023-03-01T13:51:04;7.30;99.90
22629;DHT22;11481;53.694;9.910;2023-03-01T13:53:35;7.10;99.90
22629;DHT22;11481;53.694;9.910;2023-03-01T13:56:13;7.10;99.90
22629;DHT22;11481;53.694;9.910;2023-03-01T13:58:52;7.00;99.90
22629;DHT22;11481;53.694;9.910;2023-03-01T14:03:48;7.10;99.90
22629;DHT22;11481;53.694;9.910;2023-03-01T14:06:19;7.40;99.90
22629;DHT22;11481;53.694;9.910;2023-03-01T14:08:49;7.30;99.90
22629;DHT22;11481;53.694;9.910;2023-03-01T14:14:41;7.40;99.90
22629;DHT22;11481;53.694;9.910;2023-03-01T14:17:30;7.70;99.90
22629;DHT22;11481;53.694;9.910;2023-03-01T14:20:11;7.60;99.90
22629;DHT22;11481;53.694;9.910;2023-03-01T14:22:41;7.60;99.90
22629;DHT22;11481;53.694;9.910;2023-03-01T14:25:25;7.70;99.90
22629;DHT22;11481;53.694;9.910;2023-03-01T14:30:45;7.60;99.90
22629;DHT22;11481;53.694;9.910;2023-03-01T14:33:27;7.70;99.90
22629;DHT22;11481;53.694;9.910;2023-03-01T14:35:57;7.90;99.90
22629;DHT22;11481;53.694;9.910;2023-03-01T14:38:45;8.00;99.90
22629;DHT22;11481;53.694;9.910;2023-03-01T14:41:25;8.00;99.90
22629;DHT22;11481;53.694;9.910;2023-03-01T14:43:55;8.10;99.90
22629;DHT22;11481;53.694;9.910;2023-03-01T14:46:35;8.40;99.90
22629;DHT22;11481;53.694;9.910;2023-03-01T14:49:11;8.50;99.90
22629;DHT22;11481;53.694;9.910;2023-03-01T14:51:57;8.60;99.90
22629;DHT22;11481;53.694;9.910;2023-03-01T14:54:39;8.90;99.90
22629;DHT22;11481;53.694;9.910;2023-03-01T14:57:16;9.10;99.90
22629;DHT22;11481;53.694;9.910;2023-03-01T14:59:43;9.10;99.90
22629;DHT22;11481;53.694;9.910;2023-03-01T15:02:17;9.10;99.90
22629;DHT22;11481;53.694;9.910;2023-03-01T15:04:52;9.00;99.90
22629;DHT22;11481;53.694;9.910;2023-03-01T15:07:31;8.90;99.90
22629;DHT22;11481;53.694;9.910;2023-03-01T15:09:59;9.20;99.90
22629;DHT22;11481;53.694;9.910;2023-03-01T15:12:36;9.10;99.90
22629;DHT22;11481;53.694;9.910;2023-03-01T15:15:38;9.00;99.90
22629;DHT22;11481;53.694;9.910;2023-03-01T15:18:28;8.90;99.90
22629;DHT22;11481;53.694;9.910;2023-03-01T15:21:09;9.00;99.90
22629;DHT22;11481;53.694;9.910;2023-03-01T15:23:37;9.00;99.90
22629;DHT22;11481;53.694;9.910;2023-03-01T15:26:04;9.00;99.90
22629;DHT22;11481;53.694;9.910;2023-03-01T15:28:34;9.10;99.90
22629;DHT22;11481;53.694;9.910;2023-03-01T15:31:20;9.00;99.90
22629;DHT22;11481;53.694;9.910;2023-03-01T15:33:48;8.90;99.90
22629;DHT22;11481;53.694;9.910;2023-03-01T15:38:58;9.00;99.90
22629;DHT22;11481;53.694;9.910;2023-03-01T15:41:28;8.90;99.90
22629;DHT22;11481;53.694;9.910;2023-03-01T15:44:13;8.70;99.90
22629;DHT22;11481;53.694;9.910;2023-03-01T15:46:46;8.80;99.90
22629;DHT22;11481;53.694;9.910;2023-03-01T15:49:25;9.00;99.90
22629;DHT22;11481;53.694;9.910;2023-03-01T15:51:54;9.00;99.90
22629;DHT22;11481;53.694;9.910;2023-03-01T15:54:24;9.10;99.90
22629;DHT22;11481;53.694;9.910;2023-03-01T15:56:54;9.00;99.90
22629;DHT22;11481;53.694;9.910;2023-03-01T15:59:21;8.90;99.90
22629;DHT22;11481;53.694;9.910;2023-03-01T16:01:48;9.00;99.90
22629;DHT22;11481;53.694;9.910;2023-03-01T16:04:17;9.00;99.90
22629;DHT22;11481;53.694;9.910;2023-03-01T16:06:51;9.10;99.90
22629;DHT22;11481;53.694;9.910;2023-03-01T16:09:23;9.00;99.90
22629;DHT22;11481;53.694;9.910;2023-03-01T16:11:50;9.20;99.90
22629;DHT22;11481;53.694;9.910;2023-03-01T16:14:18;9.10;99.90
22629;DHT22;11481;53.694;9.910;2023-03-01T16:16:45;9.10;99.90
22629;DHT22;11481;53.694;9.910;2023-03-01T16:19:12;9.10;99.90
22629;DHT22;11481;53.694;9.910;2023-03-01T16:21:41;9.20;99.90
22629;DHT22;11481;53.694;9.910;2023-03-01T16:24:09;9.30;99.90
22629;DHT22;11481;53.694;9.910;2023-03-01T16:26:37;9.20;99.90
22629;DHT22;11481;53.694;9.910;2023-03-01T16:29:04;9.10;99.90
22629;DHT22;11481;53.694;9.910;2023-03-01T16:31:31;8.80;99.90
22629;DHT22;11481;53.694;9.910;2023-03-01T16:33:59;8.90;99.90
22629;DHT22;11481;53.694;9.910;2023-03-01T16:36:27;9.10;99.90
22629;DHT22;11481;53.694;9.910;2023-03-01T16:38:58;8.90;99.90
22629;DHT22;11481;53.694;9.910;2023-03-01T16:41:25;8.90;99.90
22629;DHT22;11481;53.694;9.910;2023-03-01T16:43:51;8.90;99.90
22629;DHT22;11481;53.694;9.910;2023-03-01T16:46:23;8.90;99.90
22629;DHT22;11481;53.694;9.910;2023-03-01T16:48:51;8.70;99.90
22629;DHT22;11481;53.694;9.910;2023-03-01T16:51:18;8.50;99.90
22629;DHT22;11481;53.694;9.910;2023-03-01T16:53:46;8.30;99.90
22629;DHT22;11481;53.694;9.910;2023-03-01T16:56:14;8.30;99.90
22629;DHT22;11481;53.694;9.910;2023-03-01T16:58:41;8.10;99.90
22629;DHT22;11481;53.694;9.910;2023-03-01T17:01:11;8.00;99.90
22629;DHT22;11481;53.694;9.910;2023-03-01T17:03:39;7.90;99.90
22629;DHT22;11481;53.694;9.910;2023-03-01T17:06:09;7.70;99.90
22629;DHT22;11481;53.694;9.910;2023-03-01T17:08:39;7.60;99.90
22629;DHT22;11481;53.694;9.910;2023-03-01T17:11:17;7.60;99.90
22629;DHT22;11481;53.694;9.910;2023-03-01T17:13:44;7.50;99.90
22629;DHT22;11481;53.694;9.910;2023-03-01T17:16:13;7.70;99.90
22629;DHT22;11481;53.694;9.910;2023-03-01T17:18:40;7.50;99.90
22629;DHT22;11481;53.694;9.910;2023-03-01T17:21:08;7.30;99.90
22629;DHT22;11481;53.694;9.910;2023-03-01T17:23:36;7.40;99.90
22629;DHT22;11481;53.694;9.910;2023-03-01T17:26:04;7.50;99.90
22629;DHT22;11481;53.694;9.910;2023-03-01T17:28:35;7.60;99.90
22629;DHT22;11481;53.694;9.910;2023-03-01T17:31:04;7.60;99.90